Terminal Aerodrome Forecast
Issued by NWS

Home | Current Version | Previous Version | Text Only | Print | Product List | Glossary On
Versions: 1 2 3 4 5 6 7 8 9 10 11 12 13 14 15 16 17 18
000
FTAK31 PAJN 220500
TAFAWG
TAF
PAWG 220520Z 2206/2306 VRB03KT P6SM FEW020 BKN050 BKN070
     FM220900 00000KT 3SM BR FEW002 BKN100
     FM221400 VRB02KT 6SM BR SCT005 BKN070
     FM221800 32004KT P6SM BKN050 BKN070
     FM230000 30005KT P6SM VCSH BKN050 OVC100
      AMD LTD TO CLD VIS AND WIND 2206/2215=

USA.gov is the U.S. government's official web portal to all federal, state and local government web resources and services.